Terminal Aerodrome Forecast
Issued by NWS

Home | Current Version | Previous Version | Graphics & Text | Print | Product List | Glossary On
Versions: 1 2 3 4 5 6 7 8 9 10 11 12 13 14 15 16 17 18 19
000
FTUS45 KGGW 191700
TAFSDY
TAF
KSDY 191720Z 1918/2018 VRB05KT P6SM SCT150
     FM200900 VRB05KT P6SM BKN060
     FM201400 24008KT P6SM VCSH BKN020
     FM201700 24008KT P6SM SCT040 SCT250
      AMD LTD TO CLD VIS AND WIND=

USA.gov is the U.S. government's official web portal to all federal, state and local government web resources and services.